Time;durP1;ratioP1;P1;durP2;ratioP2;P2;SDS_P1;SDS_P2;PMS_P1;PMS_P2;Temp;Humidity;BMP_temperature;BMP_pressure;BME280_temperature;BME280_humidity;BME280_pressure;Samples;Min_cycle;Max_cycle;Signal;HPM_P1;HPM_P2
2023/08/29 00:00:34;;;;;;;4.53;1.70;;;14.10;99.90;;;;;;5049440;28;20052;-60
2023/08/29 00:03:03;;;;;;;4.93;1.70;;;14.10;99.90;;;;;;5049462;28;20520;-59
2023/08/29 00:05:31;;;;;;;4.07;1.65;;;14.10;99.90;;;;;;5049065;28;20520;-59
2023/08/29 00:07:59;;;;;;;2.47;1.60;;;14.10;99.90;;;;;;5049656;28;20056;-59
2023/08/29 00:10:27;;;;;;;4.75;1.40;;;14.10;99.90;;;;;;5050237;28;20049;-59
2023/08/29 00:12:54;;;;;;;3.08;1.73;;;14.10;99.90;;;;;;5045430;28;20045;-59
2023/08/29 00:15:22;;;;;;;3.90;1.20;;;14.10;99.90;;;;;;5049842;28;20557;-59
2023/08/29 00:17:50;;;;;;;2.60;1.30;;;14.10;99.90;;;;;;5050443;28;20049;-58
2023/08/29 00:20:18;;;;;;;2.65;1.40;;;14.10;99.90;;;;;;5049299;28;20041;-58
2023/08/29 00:22:46;;;;;;;5.90;1.42;;;14.10;99.90;;;;;;5045706;28;20425;-61
2023/08/29 00:25:14;;;;;;;5.38;1.33;;;14.10;99.90;;;;;;5032327;28;20040;-59
2023/08/29 00:27:42;;;;;;;4.30;1.65;;;14.10;99.90;;;;;;5043099;28;20041;-59
2023/08/29 00:30:10;;;;;;;4.30;1.60;;;14.10;99.90;;;;;;5067016;28;20503;-57
2023/08/29 00:32:37;;;;;;;2.83;1.40;;;14.10;99.90;;;;;;5066308;28;20055;-58
2023/08/29 00:35:05;;;;;;;6.80;1.65;;;14.10;99.90;;;;;;5042887;28;20052;-58
2023/08/29 00:37:33;;;;;;;2.80;1.63;;;14.10;99.90;;;;;;5048068;28;20056;-58
2023/08/29 00:40:01;;;;;;;2.95;1.58;;;14.10;99.90;;;;;;5065824;28;20041;-58
2023/08/29 00:42:29;;;;;;;2.97;1.77;;;14.10;99.90;;;;;;5064328;28;20057;-58
2023/08/29 00:44:57;;;;;;;3.88;1.80;;;14.10;99.90;;;;;;5028857;28;20042;-58
2023/08/29 00:47:25;;;;;;;2.75;1.58;;;14.00;99.90;;;;;;5046705;28;20787;-58
2023/08/29 00:49:53;;;;;;;3.05;2.17;;;14.00;99.90;;;;;;5049257;28;20407;-58
2023/08/29 00:52:21;;;;;;;5.35;2.10;;;14.00;99.90;;;;;;5059873;28;20033;-59
2023/08/29 00:54:49;;;;;;;3.13;2.10;;;14.00;99.90;;;;;;5049300;28;20044;-60
2023/08/29 00:57:17;;;;;;;2.58;1.77;;;14.00;99.90;;;;;;5047748;28;20045;-58
2023/08/29 00:59:44;;;;;;;3.22;1.92;;;14.00;99.90;;;;;;5047835;28;20045;-58
2023/08/29 01:02:13;;;;;;;4.93;2.15;;;14.00;99.90;;;;;;5047884;28;20056;-58
2023/08/29 01:04:40;;;;;;;3.50;1.77;;;14.00;99.90;;;;;;5045492;28;20045;-58
2023/08/29 01:07:08;;;;;;;4.28;1.85;;;14.00;99.90;;;;;;5046958;28;20060;-58
2023/08/29 01:09:38;;;;;;;6.22;1.42;;;14.00;99.90;;;;;;5062514;28;20051;-58
2023/08/29 01:12:16;;;;;;;3.80;1.50;;;13.90;99.90;;;;;;5068915;28;20047;-58
2023/08/29 01:15:10;;;;;;;2.35;1.48;;;14.00;99.90;;;;;;5047067;28;20052;-58
2023/08/29 01:17:47;;;;;;;4.10;1.50;;;13.90;99.90;;;;;;5048078;28;20541;-59
2023/08/29 01:20:17;;;;;;;2.67;1.90;;;14.00;99.90;;;;;;5068030;28;20053;-58
2023/08/29 01:23:08;;;;;;;2.28;1.35;;;13.90;99.90;;;;;;5066029;28;20437;-58
2023/08/29 01:25:42;;;;;;;3.63;1.60;;;13.90;99.90;;;;;;5047697;28;20051;-58
2023/08/29 01:28:10;;;;;;;2.85;1.27;;;13.90;99.90;;;;;;5045529;28;20046;-58
2023/08/29 01:30:38;;;;;;;2.53;1.45;;;13.90;99.90;;;;;;5045740;28;20044;-59
2023/08/29 01:33:07;;;;;;;3.25;1.40;;;13.90;99.90;;;;;;5035168;28;20056;-58
2023/08/29 01:35:44;;;;;;;2.67;1.40;;;13.90;99.90;;;;;;5050547;28;20045;-58
2023/08/29 01:38:12;;;;;;;2.85;1.60;;;13.90;99.90;;;;;;5051013;28;20048;-58
2023/08/29 01:40:40;;;;;;;2.63;1.48;;;13.80;99.90;;;;;;5050782;28;20044;-58
2023/08/29 01:43:07;;;;;;;2.10;1.13;;;13.90;99.90;;;;;;5047811;28;20045;-58
2023/08/29 01:45:35;;;;;;;5.38;1.70;;;13.90;99.90;;;;;;5033033;28;20037;-58
2023/08/29 01:48:04;;;;;;;3.60;1.60;;;13.90;99.90;;;;;;5051794;28;20049;-59
2023/08/29 01:50:34;;;;;;;6.53;1.60;;;13.90;99.90;;;;;;5050538;28;20396;-59
2023/08/29 01:53:03;;;;;;;2.28;1.30;;;13.90;99.90;;;;;;5067285;28;20052;-59
2023/08/29 01:55:33;;;;;;;4.20;2.10;;;13.90;99.90;;;;;;5068239;28;20051;-58
2023/08/29 01:58:03;;;;;;;3.70;1.20;;;13.90;99.90;;;;;;5050892;28;20298;-59
2023/08/29 02:00:32;;;;;;;4.22;1.55;;;13.90;99.90;;;;;;5051910;28;20048;-58
2023/08/29 02:03:00;;;;;;;4.25;1.38;;;13.90;99.90;;;;;;5050291;28;20049;-58
2023/08/29 02:05:28;;;;;;;1.85;1.20;;;13.80;99.90;;;;;;5051130;28;20045;-59
2023/08/29 02:08:05;;;;;;;4.20;1.30;;;13.80;99.90;;;;;;5050061;28;20500;-59
2023/08/29 02:10:33;;;;;;;1.88;1.30;;;13.80;99.90;;;;;;5050011;28;20405;-58
2023/08/29 02:13:01;;;;;;;5.18;1.35;;;13.80;99.90;;;;;;5042781;28;20040;-58
2023/08/29 02:15:28;;;;;;;3.80;1.40;;;13.80;99.90;;;;;;5036811;28;20048;-58
2023/08/29 02:17:56;;;;;;;2.60;1.40;;;13.80;99.90;;;;;;5050820;28;20120;-58
2023/08/29 02:20:24;;;;;;;1.85;1.38;;;13.80;99.90;;;;;;5051210;28;20590;-58
2023/08/29 02:22:52;;;;;;;4.43;1.40;;;13.80;99.90;;;;;;5065621;28;20534;-58
2023/08/29 02:25:20;;;;;;;3.15;1.30;;;13.70;99.90;;;;;;5057534;28;20041;-58
2023/08/29 02:27:47;;;;;;;3.53;0.98;;;13.70;99.90;;;;;;5053930;28;20037;-58
2023/08/29 02:30:15;;;;;;;3.00;1.60;;;13.70;99.90;;;;;;5055385;28;20045;-58
2023/08/29 02:32:43;;;;;;;3.90;1.42;;;13.70;99.90;;;;;;5055591;28;20049;-58
2023/08/29 02:35:10;;;;;;;2.05;1.33;;;13.70;99.90;;;;;;5053942;28;20051;-58
2023/08/29 02:37:38;;;;;;;3.60;1.60;;;13.70;99.90;;;;;;5054943;28;20079;-59
2023/08/29 02:40:08;;;;;;;2.33;1.00;;;13.60;99.90;;;;;;5046968;28;20073;-59
2023/08/29 02:42:36;;;;;;;2.88;1.67;;;13.60;99.90;;;;;;5036080;28;20064;-58
2023/08/29 02:45:04;;;;;;;4.25;1.50;;;13.60;99.90;;;;;;5054107;28;20060;-58
2023/08/29 02:47:32;;;;;;;4.63;1.38;;;13.50;99.90;;;;;;5055157;28;20047;-59
2023/08/29 02:50:01;;;;;;;1.45;1.00;;;13.50;99.90;;;;;;5054823;28;20037;-59
2023/08/29 02:52:28;;;;;;;4.25;1.50;;;13.40;99.90;;;;;;5053352;28;20052;-59
2023/08/29 02:54:56;;;;;;;6.75;2.00;;;13.40;99.90;;;;;;5055263;28;20041;-58
2023/08/29 02:57:24;;;;;;;6.28;1.20;;;13.40;99.90;;;;;;5053713;28;20496;-58
2023/08/29 02:59:52;;;;;;;3.55;1.27;;;13.30;99.90;;;;;;5054856;28;20048;-59
2023/08/29 03:02:23;;;;;;;1.67;1.10;;;13.30;99.90;;;;;;5054770;28;20056;-59
2023/08/29 03:04:51;;;;;;;1.63;1.17;;;13.30;99.90;;;;;;5054063;28;20485;-59
2023/08/29 03:07:18;;;;;;;2.25;1.13;;;13.30;99.90;;;;;;5053539;28;20124;-58
2023/08/29 03:09:46;;;;;;;6.60;1.40;;;13.30;99.90;;;;;;5053523;28;20057;-59
2023/08/29 03:12:14;;;;;;;4.35;1.20;;;13.30;99.90;;;;;;5053474;28;20060;-59
2023/08/29 03:14:42;;;;;;;3.10;1.50;;;13.30;99.90;;;;;;5053642;28;20400;-59
2023/08/29 03:17:13;;;;;;;6.20;1.45;;;13.30;99.90;;;;;;5054369;28;20049;-59
2023/08/29 03:19:41;;;;;;;3.42;1.40;;;13.30;99.90;;;;;;5053054;28;20049;-59
2023/08/29 03:22:10;;;;;;;1.30;1.15;;;13.30;99.90;;;;;;5063059;28;20048;-59
2023/08/29 03:24:45;;;;;;;1.48;1.05;;;13.40;99.90;;;;;;5062951;28;20052;-59
2023/08/29 03:27:13;;;;;;;3.35;1.35;;;13.40;99.90;;;;;;5053318;28;20392;-59
2023/08/29 03:29:41;;;;;;;4.97;1.35;;;13.40;99.90;;;;;;5052624;28;20041;-58
2023/08/29 03:32:09;;;;;;;4.10;1.45;;;13.40;99.90;;;;;;5054481;28;20037;-59
2023/08/29 03:34:37;;;;;;;2.35;1.27;;;13.40;99.90;;;;;;5053488;28;20033;-58
2023/08/29 03:37:07;;;;;;;2.83;1.27;;;13.40;99.90;;;;;;5052903;28;20056;-58
2023/08/29 03:39:34;;;;;;;4.03;1.40;;;13.40;99.90;;;;;;5053347;28;20526;-58
2023/08/29 03:42:03;;;;;;;3.80;1.52;;;13.40;99.90;;;;;;5053193;28;20045;-58
2023/08/29 03:44:30;;;;;;;3.38;1.45;;;13.50;99.90;;;;;;5053933;28;20045;-58
2023/08/29 03:46:58;;;;;;;2.55;1.30;;;13.50;99.90;;;;;;5053284;28;20496;-58
2023/08/29 03:49:26;;;;;;;2.35;1.30;;;13.50;99.90;;;;;;5053821;28;20045;-58
2023/08/29 03:51:55;;;;;;;2.90;1.35;;;13.50;99.90;;;;;;5061696;28;20052;-58
2023/08/29 03:54:22;;;;;;;7.38;1.20;;;13.50;99.90;;;;;;5065592;28;20045;-58
2023/08/29 03:56:50;;;;;;;6.32;1.60;;;13.40;99.90;;;;;;5053753;28;20503;-58
2023/08/29 03:59:18;;;;;;;4.97;1.60;;;13.50;99.90;;;;;;5053859;28;20049;-58
2023/08/29 04:01:46;;;;;;;2.35;1.30;;;13.50;99.90;;;;;;5053827;28;20037;-59
2023/08/29 04:04:14;;;;;;;3.17;1.65;;;13.50;99.90;;;;;;5036213;28;20408;-59
2023/08/29 04:06:41;;;;;;;2.45;1.30;;;13.50;99.90;;;;;;5033615;28;20048;-59
2023/08/29 04:09:10;;;;;;;2.97;1.52;;;13.50;99.90;;;;;;5048924;28;20049;-58
2023/08/29 04:11:39;;;;;;;4.32;1.55;;;13.50;99.90;;;;;;5035627;28;20138;-59
2023/08/29 04:14:07;;;;;;;1.65;1.40;;;13.50;99.90;;;;;;5053642;28;20049;-59
2023/08/29 04:16:34;;;;;;;2.75;1.38;;;13.50;99.90;;;;;;5052227;28;20052;-59
2023/08/29 04:19:02;;;;;;;2.47;1.40;;;13.50;99.90;;;;;;5043318;28;20596;-58
2023/08/29 04:21:30;;;;;;;2.97;1.52;;;13.50;99.90;;;;;;5040876;28;20067;-58
2023/08/29 04:23:59;;;;;;;2.22;1.42;;;13.50;99.90;;;;;;5068980;28;20041;-59
2023/08/29 04:26:26;;;;;;;6.05;1.73;;;13.50;99.90;;;;;;5053372;28;20048;-58
2023/08/29 04:28:54;;;;;;;4.15;1.55;;;13.50;99.90;;;;;;5053188;28;20507;-59
2023/08/29 04:31:22;;;;;;;4.57;1.98;;;13.50;99.90;;;;;;5049600;28;20053;-58
2023/08/29 04:33:50;;;;;;;2.35;1.48;;;13.50;99.90;;;;;;5052083;28;20040;-58
2023/08/29 04:36:18;;;;;;;3.65;1.77;;;13.50;99.90;;;;;;5053173;28;20045;-58
2023/08/29 04:38:47;;;;;;;5.43;1.38;;;13.50;99.90;;;;;;5048224;28;20045;-61
2023/08/29 04:41:16;;;;;;;8.52;1.83;;;13.50;99.90;;;;;;5052048;28;20041;-59
2023/08/29 04:43:44;;;;;;;3.92;1.40;;;13.50;99.90;;;;;;5053177;28;20045;-59
2023/08/29 04:46:11;;;;;;;2.72;1.92;;;13.50;99.90;;;;;;5051644;28;20049;-59
2023/08/29 04:48:39;;;;;;;2.92;1.63;;;13.50;99.90;;;;;;5043144;28;20056;-59
2023/08/29 04:51:07;;;;;;;2.28;1.55;;;13.50;99.90;;;;;;5049285;28;20049;-59
2023/08/29 04:53:34;;;;;;;2.67;1.70;;;13.50;99.90;;;;;;5067078;28;20522;-58
2023/08/29 04:56:03;;;;;;;2.92;1.70;;;13.50;99.90;;;;;;5047703;28;20037;-59
2023/08/29 04:58:36;;;;;;;4.90;1.77;;;13.50;99.90;;;;;;5040213;28;20053;-59
2023/08/29 05:01:04;;;;;;;4.03;1.77;;;13.50;99.90;;;;;;5047393;28;20040;-59
2023/08/29 05:03:32;;;;;;;6.90;1.80;;;13.50;99.90;;;;;;5035817;28;20045;-58
2023/08/29 05:06:00;;;;;;;6.32;2.50;;;13.50;99.90;;;;;;5044101;28;20107;-59
2023/08/29 05:08:34;;;;;;;3.60;2.22;;;13.60;99.90;;;;;;5057067;28;20051;-58
2023/08/29 05:11:03;;;;;;;7.05;2.50;;;13.50;99.90;;;;;;5066670;28;20044;-59
2023/08/29 05:13:31;;;;;;;5.28;2.10;;;13.60;99.90;;;;;;5062756;28;20044;-58
2023/08/29 05:15:59;;;;;;;4.18;2.10;;;13.60;99.90;;;;;;5044801;28;20037;-58
2023/08/29 05:18:27;;;;;;;3.10;1.77;;;13.60;99.90;;;;;;5041721;28;20045;-58
2023/08/29 05:20:57;;;;;;;8.30;1.95;;;13.50;99.90;;;;;;5044034;28;20041;-58
2023/08/29 05:23:26;;;;;;;3.45;1.73;;;13.50;99.90;;;;;;5064144;28;20059;-58
2023/08/29 05:25:53;;;;;;;3.70;2.13;;;13.50;99.90;;;;;;5046099;28;20052;-58
2023/08/29 05:28:21;;;;;;;6.20;2.38;;;13.50;99.90;;;;;;5047032;28;20048;-58
2023/08/29 05:30:49;;;;;;;4.03;2.13;;;13.50;99.90;;;;;;5048203;28;20063;-59
2023/08/29 05:33:17;;;;;;;5.38;2.50;;;13.50;99.90;;;;;;5045608;28;20054;-59
2023/08/29 05:35:44;;;;;;;6.65;2.67;;;13.60;99.90;;;;;;5042591;28;20045;-59
2023/08/29 05:38:13;;;;;;;5.78;3.03;;;13.60;99.90;;;;;;5056311;28;20067;-59
2023/08/29 05:40:41;;;;;;;4.85;2.25;;;13.60;99.90;;;;;;5067475;28;20521;-60
2023/08/29 05:43:08;;;;;;;4.85;2.60;;;13.60;99.90;;;;;;5052801;28;20056;-59
2023/08/29 05:45:36;;;;;;;6.82;3.10;;;13.60;99.90;;;;;;5044806;28;20539;-59
2023/08/29 05:48:04;;;;;;;4.60;2.05;;;13.60;99.90;;;;;;5046373;28;20044;-59
2023/08/29 05:50:32;;;;;;;3.28;2.25;;;13.60;99.90;;;;;;5030666;28;20057;-60
2023/08/29 05:53:00;;;;;;;6.05;2.60;;;13.70;99.90;;;;;;5063653;28;20060;-59
2023/08/29 05:55:28;;;;;;;6.07;2.53;;;13.70;99.90;;;;;;5052732;28;20416;-59
2023/08/29 05:57:55;;;;;;;11.85;2.30;;;13.70;99.90;;;;;;5048100;28;20062;-59
2023/08/29 06:00:23;;;;;;;4.70;2.53;;;13.70;99.90;;;;;;5047968;28;20064;-59
2023/08/29 06:02:52;;;;;;;8.32;2.47;;;13.70;99.90;;;;;;5046293;28;20056;-59
2023/08/29 06:05:20;;;;;;;5.68;2.65;;;13.80;99.90;;;;;;5044929;28;20060;-59
2023/08/29 06:07:48;;;;;;;5.72;2.40;;;13.80;99.90;;;;;;5046941;28;20052;-59
2023/08/29 06:10:16;;;;;;;3.85;2.50;;;13.80;99.90;;;;;;5048390;28;20055;-59
2023/08/29 06:12:44;;;;;;;7.57;2.50;;;13.90;99.90;;;;;;5047071;28;20401;-60
2023/08/29 06:15:12;;;;;;;3.45;1.92;;;13.90;99.90;;;;;;5046783;28;20041;-60
2023/08/29 06:17:40;;;;;;;5.40;2.55;;;13.90;99.90;;;;;;5047743;28;20037;-59
2023/08/29 06:20:11;;;;;;;4.50;2.35;;;13.90;99.90;;;;;;5028847;28;20053;-60
2023/08/29 06:22:39;;;;;;;5.13;2.78;;;13.90;99.90;;;;;;5050891;28;20048;-59
2023/08/29 06:25:07;;;;;;;4.43;2.90;;;13.90;99.90;;;;;;5055835;28;20056;-59
2023/08/29 06:27:34;;;;;;;6.32;2.72;;;14.00;99.90;;;;;;5044693;28;20067;-59
2023/08/29 06:30:03;;;;;;;6.20;2.75;;;14.00;99.90;;;;;;5043805;28;20052;-59
2023/08/29 06:32:31;;;;;;;7.10;3.13;;;14.00;99.90;;;;;;5044673;28;20522;-59
2023/08/29 06:34:59;;;;;;;4.53;2.65;;;14.00;99.90;;;;;;5038279;28;20726;-59
2023/08/29 06:37:27;;;;;;;5.38;3.20;;;14.10;99.90;;;;;;5046722;28;20053;-59
2023/08/29 06:39:55;;;;;;;7.82;2.95;;;14.10;99.90;;;;;;5030292;28;20065;-61
2023/08/29 06:42:23;;;;;;;11.65;2.70;;;14.20;99.90;;;;;;5032884;28;20045;-59
2023/08/29 06:44:51;;;;;;;7.10;2.65;;;14.20;99.90;;;;;;5047798;28;20484;-59
2023/08/29 06:47:18;;;;;;;6.90;2.35;;;14.20;99.90;;;;;;5047674;28;20048;-59
2023/08/29 06:49:46;;;;;;;8.32;2.70;;;14.30;99.90;;;;;;5033571;28;20060;-59
2023/08/29 06:52:14;;;;;;;5.50;2.85;;;14.30;99.90;;;;;;5041733;28;20048;-59
2023/08/29 06:54:42;;;;;;;6.25;2.78;;;14.30;99.90;;;;;;5047645;28;20049;-59
2023/08/29 06:57:09;;;;;;;7.40;2.42;;;14.40;99.90;;;;;;5045456;28;20396;-60
2023/08/29 06:59:37;;;;;;;8.95;2.72;;;14.40;99.90;;;;;;5066702;28;20051;-60
2023/08/29 07:02:05;;;;;;;6.55;2.58;;;14.50;99.90;;;;;;5062101;28;20056;-59
2023/08/29 07:04:33;;;;;;;7.25;2.65;;;14.50;99.90;;;;;;5040067;28;20428;-59
2023/08/29 07:07:01;;;;;;;6.70;3.13;;;14.70;99.90;;;;;;5045777;28;20049;-59
2023/08/29 07:09:30;;;;;;;7.57;2.80;;;14.70;99.90;;;;;;5047263;28;20049;-59
2023/08/29 07:11:58;;;;;;;6.13;2.70;;;14.80;99.90;;;;;;5046608;28;20041;-59
2023/08/29 07:14:26;;;;;;;7.68;2.90;;;14.80;99.90;;;;;;5049937;28;20650;-59
2023/08/29 07:16:53;;;;;;;5.18;2.85;;;14.90;99.90;;;;;;5051267;28;20500;-59
2023/08/29 07:19:38;;;;;;;6.60;2.80;;;14.90;99.90;;;;;;5054844;28;20733;-59
2023/08/29 07:22:06;;;;;;;9.88;3.08;;;15.00;99.90;;;;;;5057012;28;20041;-59
2023/08/29 07:24:51;;;;;;;6.50;2.67;;;15.00;99.90;;;;;;5051046;28;20048;-59
2023/08/29 07:27:19;;;;;;;4.72;2.58;;;15.10;99.90;;;;;;5032693;28;20045;-59
2023/08/29 07:29:47;;;;;;;4.63;2.78;;;15.20;99.90;;;;;;5049355;28;20473;-58
2023/08/29 07:32:14;;;;;;;4.22;2.67;;;15.20;99.90;;;;;;5050644;28;20045;-59
2023/08/29 07:34:42;;;;;;;7.85;2.97;;;15.30;99.90;;;;;;5048400;28;20045;-60
2023/08/29 07:37:10;;;;;;;6.43;2.60;;;15.30;99.90;;;;;;5049318;28;20049;-59
2023/08/29 07:39:38;;;;;;;6.40;2.75;;;15.40;99.90;;;;;;5070694;28;20381;-59
2023/08/29 07:42:05;;;;;;;5.50;2.90;;;15.50;99.90;;;;;;5068827;28;20052;-60
2023/08/29 07:44:33;;;;;;;6.38;2.60;;;15.50;99.90;;;;;;5064332;28;20045;-59
2023/08/29 07:47:01;;;;;;;5.43;2.72;;;15.60;99.90;;;;;;5047579;28;20044;-59
2023/08/29 07:49:32;;;;;;;8.15;2.47;;;15.60;99.90;;;;;;5038067;28;20493;-59
2023/08/29 07:51:59;;;;;;;7.28;2.95;;;15.60;99.90;;;;;;5039362;28;20476;-59
2023/08/29 07:54:27;;;;;;;4.47;2.92;;;15.70;99.90;;;;;;5047527;28;20044;-60
2023/08/29 07:56:55;;;;;;;9.15;2.95;;;15.80;99.90;;;;;;5049665;28;20547;-59
2023/08/29 07:59:23;;;;;;;7.63;2.83;;;15.80;99.90;;;;;;5049491;28;20045;-59
2023/08/29 08:01:52;;;;;;;7.80;3.13;;;15.80;99.90;;;;;;5050181;28;20049;-59
2023/08/29 08:04:20;;;;;;;6.43;3.17;;;15.90;99.90;;;;;;5049237;28;20048;-59
2023/08/29 08:06:47;;;;;;;4.70;3.15;;;15.90;99.90;;;;;;5050207;28;20045;-59
2023/08/29 08:09:17;;;;;;;7.95;3.25;;;15.90;99.90;;;;;;5049850;28;20041;-60
2023/08/29 08:11:44;;;;;;;7.28;4.55;;;15.90;99.90;;;;;;5050735;28;20045;-60
2023/08/29 08:14:12;;;;;;;5.82;3.35;;;16.00;99.90;;;;;;5048591;28;20048;-59
2023/08/29 08:16:40;;;;;;;6.85;3.30;;;16.00;99.90;;;;;;5050056;28;20055;-59
2023/08/29 08:19:10;;;;;;;6.15;2.83;;;15.90;99.90;;;;;;5060894;28;20045;-59
2023/08/29 08:21:37;;;;;;;7.63;3.78;;;15.90;99.90;;;;;;5042713;28;20042;-59
2023/08/29 08:24:07;;;;;;;4.35;2.90;;;15.90;99.90;;;;;;5066021;28;20064;-59
2023/08/29 08:26:35;;;;;;;7.63;3.63;;;16.00;99.90;;;;;;5049905;28;20106;-59
2023/08/29 08:29:04;;;;;;;6.53;3.45;;;16.00;99.90;;;;;;5065223;28;20047;-59
2023/08/29 08:31:32;;;;;;;4.50;2.70;;;16.00;99.90;;;;;;5052131;28;20045;-59
2023/08/29 08:34:00;;;;;;;9.35;3.28;;;16.00;99.90;;;;;;5067858;28;20056;-60
2023/08/29 08:36:28;;;;;;;9.52;3.70;;;16.10;99.90;;;;;;5046039;28;20519;-59
2023/08/29 08:38:56;;;;;;;6.43;3.08;;;16.10;99.90;;;;;;5063639;28;20044;-58
2023/08/29 08:41:24;;;;;;;10.25;3.20;;;16.10;99.90;;;;;;5070110;28;20052;-59
2023/08/29 08:43:55;;;;;;;7.70;3.67;;;16.20;99.90;;;;;;5050172;28;20052;-58
2023/08/29 08:46:24;;;;;;;9.13;3.15;;;16.20;99.90;;;;;;5040417;28;20053;-58
2023/08/29 08:48:56;;;;;;;7.07;2.80;;;16.20;99.90;;;;;;5044841;28;20046;-59
2023/08/29 08:51:26;;;;;;;6.43;3.72;;;16.30;99.90;;;;;;5045596;28;20391;-58
2023/08/29 08:53:54;;;;;;;6.28;3.30;;;16.30;99.90;;;;;;5051509;28;20049;-59
2023/08/29 08:56:23;;;;;;;5.60;3.50;;;16.30;99.90;;;;;;5049567;28;20053;-58
2023/08/29 08:58:51;;;;;;;4.95;3.35;;;16.40;99.90;;;;;;5048915;28;20223;-58
2023/08/29 09:01:18;;;;;;;11.07;3.25;;;16.40;99.90;;;;;;5049409;28;20052;-58
2023/08/29 09:03:46;;;;;;;5.68;3.58;;;16.50;99.90;;;;;;5064577;28;20048;-58
2023/08/29 09:06:15;;;;;;;5.50;3.28;;;16.50;99.90;;;;;;5033319;28;20504;-59
2023/08/29 09:08:43;;;;;;;6.90;3.40;;;16.60;99.90;;;;;;5039695;28;20086;-58
2023/08/29 09:11:10;;;;;;;7.82;4.05;;;16.60;99.90;;;;;;5049038;28;20045;-59
2023/08/29 09:13:48;;;;;;;5.85;3.60;;;16.60;99.90;;;;;;5063502;28;20049;-59
2023/08/29 09:16:16;;;;;;;11.50;4.10;;;16.60;99.90;;;;;;5060518;28;20033;-59
2023/08/29 09:18:44;;;;;;;9.02;3.80;;;16.60;99.90;;;;;;5061151;28;20045;-59
2023/08/29 09:21:21;;;;;;;7.45;3.92;;;16.70;99.90;;;;;;5040219;28;20056;-59
2023/08/29 09:23:50;;;;;;;10.13;4.15;;;16.70;99.90;;;;;;5046348;28;20057;-59
2023/08/29 09:26:18;;;;;;;9.15;4.40;;;16.70;99.90;;;;;;5028569;28;20052;-59
2023/08/29 09:28:48;;;;;;;8.23;4.25;;;16.70;99.90;;;;;;5048326;28;20041;-60
2023/08/29 09:31:16;;;;;;;9.93;4.28;;;16.80;99.90;;;;;;5047000;28;20053;-59
2023/08/29 09:33:46;;;;;;;7.53;4.25;;;16.80;99.90;;;;;;5053627;28;20045;-61
2023/08/29 09:36:14;;;;;;;10.32;4.70;;;16.70;99.90;;;;;;5041912;28;20056;-59
2023/08/29 09:38:43;;;;;;;8.48;5.05;;;16.70;99.90;;;;;;5045196;28;20388;-59
2023/08/29 09:41:17;;;;;;;10.38;4.80;;;16.60;99.90;;;;;;5048372;28;20397;-59
2023/08/29 09:43:49;;;;;;;9.02;5.25;;;16.50;99.90;;;;;;5045939;28;20068;-59
2023/08/29 09:46:21;;;;;;;11.13;5.53;;;16.40;99.90;;;;;;5045426;28;20037;-59
2023/08/29 09:48:57;;;;;;;7.13;5.30;;;16.30;99.90;;;;;;5046955;28;20128;-59
2023/08/29 09:51:28;;;;;;;8.65;5.40;;;16.20;99.90;;;;;;5040314;28;20036;-59
2023/08/29 09:53:57;;;;;;;9.73;5.50;;;16.20;99.90;;;;;;5048128;28;20516;-59
2023/08/29 09:56:28;;;;;;;10.98;5.35;;;16.00;99.90;;;;;;5043012;28;20750;-59
2023/08/29 09:58:58;;;;;;;7.13;4.40;;;16.00;99.90;;;;;;5059691;28;20518;-59
2023/08/29 10:01:27;;;;;;;9.05;4.65;;;15.90;99.90;;;;;;5068475;28;20044;-59
2023/08/29 10:04:00;;;;;;;10.88;5.35;;;15.80;99.90;;;;;;5048371;28;20048;-59
2023/08/29 10:06:28;;;;;;;9.63;5.30;;;15.70;99.90;;;;;;5034565;28;20057;-59
2023/08/29 10:09:00;;;;;;;10.57;5.85;;;15.60;99.90;;;;;;5056036;28;20044;-59
2023/08/29 10:11:29;;;;;;;10.80;5.22;;;15.50;99.90;;;;;;5068266;28;20036;-59
2023/08/29 10:14:16;;;;;;;8.85;5.47;;;15.50;99.90;;;;;;5046483;28;20485;-59
2023/08/29 10:16:46;;;;;;;8.40;4.93;;;15.50;99.90;;;;;;5046251;28;20049;-59
2023/08/29 10:19:14;;;;;;;11.07;5.00;;;15.50;99.90;;;;;;5044553;28;20439;-59
2023/08/29 10:21:43;;;;;;;11.45;5.10;;;15.50;99.90;;;;;;5044275;28;20053;-59
2023/08/29 10:24:12;;;;;;;11.25;5.65;;;15.60;99.90;;;;;;5065434;28;20311;-59
2023/08/29 10:26:40;;;;;;;8.57;4.75;;;15.50;99.90;;;;;;5067997;28;20040;-59
2023/08/29 10:29:08;;;;;;;11.15;5.20;;;15.60;99.90;;;;;;5054627;28;20049;-59
2023/08/29 10:31:37;;;;;;;12.13;5.75;;;15.70;99.90;;;;;;5046955;28;20057;-59
2023/08/29 10:34:05;;;;;;;8.38;5.00;;;15.70;99.90;;;;;;5046158;28;20053;-59
2023/08/29 10:36:32;;;;;;;13.70;5.40;;;15.80;99.90;;;;;;5028609;28;20052;-59
2023/08/29 10:39:00;;;;;;;12.00;5.35;;;15.90;99.90;;;;;;5047972;28;20052;-59
2023/08/29 10:41:44;;;;;;;11.48;4.82;;;16.00;99.90;;;;;;5047545;28;20053;-59
2023/08/29 10:44:40;;;;;;;7.35;4.80;;;16.00;99.90;;;;;;5066213;28;20049;-59
2023/08/29 10:47:23;;;;;;;8.00;4.45;;;16.10;99.90;;;;;;5053200;28;20068;-59
2023/08/29 10:50:05;;;;;;;7.88;4.07;;;16.10;99.90;;;;;;5030535;28;20049;-59
2023/08/29 10:52:41;;;;;;;7.10;4.40;;;16.10;99.90;;;;;;5054419;28;20052;-58
2023/08/29 10:55:27;;;;;;;6.18;3.70;;;16.00;99.90;;;;;;5050490;28;20045;-59
2023/08/29 10:57:58;;;;;;;7.82;4.75;;;16.00;99.90;;;;;;5046967;28;20047;-59
2023/08/29 11:00:41;;;;;;;8.43;4.30;;;16.10;99.90;;;;;;5048782;28;20065;-59
2023/08/29 11:03:09;;;;;;;5.82;3.80;;;16.10;99.90;;;;;;5047212;28;20045;-59
2023/08/29 11:05:38;;;;;;;5.68;3.80;;;16.20;99.90;;;;;;5047537;28;20045;-59
2023/08/29 11:08:22;;;;;;;7.68;4.18;;;16.20;99.90;;;;;;5037056;28;20067;-58
2023/08/29 11:11:12;;;;;;;6.25;4.25;;;16.20;99.90;;;;;;5051245;28;20045;-58
2023/08/29 11:13:58;;;;;;;;;;;16.20;99.90;;;;;;5051752;28;20397;-59
2023/08/29 11:16:30;;;;;;;4.93;3.60;;;16.20;99.90;;;;;;5050921;28;20284;-60
2023/08/29 11:19:12;;;;;;;4.75;3.80;;;16.30;99.90;;;;;;5050858;28;20041;-60
2023/08/29 11:21:44;;;;;;;6.43;4.30;;;16.30;99.90;;;;;;5054309;28;20058;-60
2023/08/29 11:24:12;;;;;;;4.97;3.53;;;16.40;99.90;;;;;;5038303;28;20041;-60
2023/08/29 11:26:45;;;;;;;6.85;3.47;;;16.50;99.90;;;;;;5051679;28;20492;-60
2023/08/29 11:29:13;;;;;;;5.27;3.90;;;16.60;99.90;;;;;;5050933;28;20059;-60
2023/08/29 11:31:45;;;;;;;9.27;4.38;;;16.60;99.90;;;;;;5051277;28;20052;-60
2023/08/29 11:34:17;;;;;;;6.60;4.00;;;16.60;99.90;;;;;;5050391;28;20057;-59
2023/08/29 11:36:50;;;;;;;6.65;3.80;;;16.60;99.90;;;;;;5040831;28;20054;-59
2023/08/29 11:39:22;;;;;;;7.53;4.30;;;16.60;99.90;;;;;;5047566;28;20404;-59
2023/08/29 11:41:50;;;;;;;7.00;3.90;;;16.60;99.90;;;;;;5050575;28;20053;-59
2023/08/29 11:44:38;;;;;;;6.55;4.68;;;16.50;99.90;;;;;;5030799;28;20029;-59
2023/08/29 11:47:26;;;;;;;8.15;3.45;;;16.60;99.90;;;;;;5032766;28;20052;-60
2023/08/29 11:49:53;;;;;;;5.80;3.85;;;16.50;99.90;;;;;;5069028;28;20068;-60
2023/08/29 11:52:25;;;;;;;6.82;4.20;;;16.60;99.90;;;;;;5058602;28;20523;-61
2023/08/29 11:54:53;;;;;;;5.32;3.72;;;16.60;99.90;;;;;;5050447;28;20056;-60
2023/08/29 11:57:21;;;;;;;6.25;3.60;;;16.60;99.90;;;;;;5049635;28;20052;-60
2023/08/29 11:59:52;;;;;;;6.03;3.97;;;16.60;99.90;;;;;;5069496;28;20049;-60
2023/08/29 12:02:23;;;;;;;6.95;4.07;;;16.70;99.90;;;;;;5066017;28;20056;-61
2023/08/29 12:04:55;;;;;;;4.57;3.10;;;16.80;99.90;;;;;;5050417;28;20041;-58
2023/08/29 12:07:30;;;;;;;4.78;3.13;;;16.80;99.90;;;;;;5037353;28;20053;-60
2023/08/29 12:10:06;;;;;;;4.18;2.67;;;16.80;99.90;;;;;;5070297;28;20055;-60
2023/08/29 12:12:36;;;;;;;4.50;3.20;;;16.90;99.90;;;;;;5069065;28;20044;-60
2023/08/29 12:15:05;;;;;;;6.63;3.08;;;16.90;99.90;;;;;;5061821;28;20496;-62
2023/08/29 12:17:40;;;;;;;6.07;3.20;;;16.90;99.90;;;;;;5050871;28;20037;-61
2023/08/29 12:20:11;;;;;;;5.72;3.00;;;16.90;99.90;;;;;;5052339;28;20068;-60
2023/08/29 12:22:47;;;;;;;4.30;2.58;;;17.00;99.90;;;;;;5054595;28;20048;-61
2023/08/29 12:25:16;;;;;;;3.95;2.33;;;17.10;99.90;;;;;;5053471;28;20038;-65
2023/08/29 12:27:44;;;;;;;2.80;1.85;;;17.20;99.90;;;;;;5036112;28;20329;-61
2023/08/29 12:30:15;;;;;;;3.50;2.63;;;17.40;99.90;;;;;;5067978;28;20497;-61
2023/08/29 12:32:45;;;;;;;5.72;2.47;;;17.50;99.90;;;;;;5059361;28;20507;-62
2023/08/29 12:35:15;;;;;;;5.60;2.67;;;17.70;99.90;;;;;;5048147;28;20053;-61
2023/08/29 12:37:43;;;;;;;3.65;2.45;;;17.80;99.90;;;;;;5047514;28;20309;-61
2023/08/29 12:40:12;;;;;;;5.90;2.65;;;17.90;99.90;;;;;;5049907;28;20060;-61
2023/08/29 12:42:43;;;;;;;6.35;3.42;;;18.00;99.90;;;;;;5049146;28;20049;-61
2023/08/29 12:45:11;;;;;;;4.90;1.95;;;18.00;99.90;;;;;;5049547;28;20507;-61
2023/08/29 12:47:39;;;;;;;4.13;2.17;;;17.90;99.90;;;;;;5049826;28;20052;-61
2023/08/29 12:50:07;;;;;;;3.75;2.17;;;17.90;99.90;;;;;;5049336;28;20056;-61
2023/08/29 12:52:36;;;;;;;5.07;2.60;;;17.90;99.90;;;;;;5045784;28;20045;-60
2023/08/29 12:55:04;;;;;;;7.40;2.47;;;17.80;99.90;;;;;;5049563;28;20053;-61
2023/08/29 12:57:32;;;;;;;3.40;2.28;;;17.90;99.90;;;;;;5049148;28;20041;-61